• Join FlightAware (Why Join?)
  • Login
  • US Flag 
12:49PM EDT


 

Airport Tracker/Info


-or-


 

Live Flight TrackerFlight Track Log ✈ UAL5835 ✈ 18-May-2013 ✈ CYUL - KIAD

Flight Track Log - Related Links

Times and Time Zones

All times are in EDT time to prevent confusion due to time zone crossing. See the UAL5835 flight status page for this flight to view local times or setup timezone preferences in your user account.

Time Position Orientation Groundspeed Altitude Reporting Facility
EDT Latitude Longitude Course Direction KTS MPH feet Rate Location/Type
02:19PM 45.4517 -73.7506 209° Southwest 453 521 1,000  Level Boston Center
02:20PM 45.4072 -73.8058 221° Southwest 321 369 2,400 1,800 Climbing Boston Center
02:21PM 45.3525 -73.8606 215° Southwest 279 321 4,600 2,340 Climbing Boston Center
02:22PM 45.2833 -73.8914 197° South 258 297 7,100 2,220 Climbing Boston Center
02:23PM 45.2142 -73.9219 197° South 263 303 9,100 1,800 Climbing Boston Center
02:24PM 45.2771 -73.8683 209° Southwest  Level FlightAware Approximate
02:24PM 45.1389 -73.9583 199° South 275 316 10,700  Level Boston Center
02:25PM 45.0531 -73.9944 197° South 304 350 11,600 1,140 Climbing Boston Center
02:26PM 44.9608 -74.0328 196° South 344 396 13,000 1,320 Climbing Boston Center
02:27PM 44.8664 -74.0772 198° South 354 407 14,300 1,260 Climbing Boston Center
02:28PM 44.7678 -74.1214 198° South 368 423 15,500 1,020 Climbing Boston Center
02:29PM 44.6961 -74.1747 208° Southwest 368 423 16,400 1,080 Climbing Boston Center
02:30PM 44.6111 -74.2917 224° Southwest 360 414 17,700 900 Climbing Boston Center
02:31PM 44.5536 -74.3717 225° Southwest 366 421 18,300 840 Climbing Boston Center
02:32PM 44.4639 -74.4936 224° Southwest 371 427 19,600 1,140 Climbing Boston Center
02:33PM 44.3742 -74.6156 224° Southwest 377 434 20,900 1,140 Climbing Boston Center
02:34PM 44.2950 -74.7169 223° Southwest 383 441 21,900 960 Climbing Boston Center
02:35PM 44.2178 -74.8242 225° Southwest 388 447 22,900 960 Climbing Boston Center
02:36PM 44.1406 -74.9311 225° Southwest 388 447 23,900 1,080 Climbing Boston Center
02:37PM 44.0611 -75.0347 223° Southwest 388 447 25,100 1,200 Climbing Boston Center
02:38PM 43.9839 -75.1381 224° Southwest 388 447 26,300 1,200 Climbing Boston Center
02:39PM 43.9083 -75.2383 224° Southwest 388 447 27,500 1,140 Climbing Boston Center
02:40PM 43.8269 -75.3325 220° Southwest 382 440 28,600 1,080 Climbing Boston Center
02:41PM 43.7453 -75.4233 219° Southwest 377 434 29,700 660 Climbing Boston Center
02:42PM 43.6636 -75.5169 220° Southwest 377 434 30,000 120 Climbing Boston Center
02:43PM 43.5756 -75.6158 219° Southwest 390 449 30,000  Level Boston Center
02:44PM 43.4850 -75.7169 219° Southwest 411 473 30,000  Level Boston Center
02:45PM 43.3947 -75.8178 219° Southwest 417 480 30,000  Level Boston Center
02:46PM 43.3019 -75.9211 219° Southwest 423 487 30,000  Level Boston Center
02:47PM 43.2092 -76.0211 218° Southwest 423 487 30,000  Level Boston Center
02:48PM 43.1206 -76.1214 220° Southwest 428 493 30,000  Level Boston Center
02:49PM 43.0253 -76.2236 218° Southwest 428 493 30,000  Level Boston Center
02:50PM 42.9303 -76.3256 218° Southwest 434 499 30,000  Level Boston Center
02:52PM 42.7311 -76.5381 218° Southwest 433 498 30,000  Level Cleveland Center
02:53PM 42.6667 -76.6094 219° Southwest 435 501 30,000  Level New York Center
02:54PM 42.5606 -76.6958 211° Southwest 442 509 30,000  Level New York Center
02:55PM 42.4539 -76.7844 212° Southwest 453 521 30,000  Level New York Center
02:56PM 42.3586 -76.8600 210° Southwest 458 527 30,000  Level New York Center
02:57PM 42.2586 -76.9431 212° Southwest 446 513 30,000  Level New York Center
02:58PM 42.1467 -76.9717 191° South 411 473 30,000  Level New York Center
02:59PM 42.0525 -76.8594 138° Southeast 377 434 30,000  Level New York Center
03:00PM 41.9406 -76.8522 177° South 385 443 30,000 -480 Level New York Center
03:01PM 41.8642 -76.9619 227° Southwest 377 434 29,100 -540 Descending New York Center
03:02PM 41.7733 -77.0622 219° Southwest 405 466 29,000 -420 Descending New York Center
03:03PM 41.6847 -77.1622 220° Southwest 419 482 28,300 -540 Descending New York Center
03:04PM 41.5897 -77.2642 219° Southwest 430 495 28,000 -360 Descending New York Center
03:05PM 41.4986 -77.3661 220° Southwest 430 495 27,600 -1,080 Descending New York Center
03:06PM 41.3922 -77.4800 219° Southwest 437 503 25,900 -1,560 Descending New York Center
03:07PM 41.2989 -77.5814 219° Southwest 437 503 24,500 -1,500 Descending New York Center
03:08PM 41.2078 -77.6825 220° Southwest 437 503 23,000 -1,260 Descending New York Center
03:09PM 41.1192 -77.7725 217° Southwest 426 490 22,100 -540 Descending New York Center
03:10PM 41.0342 -77.8658 220° Southwest 416 479 22,000 -240 Descending New York Center
03:11PM 40.9364 -77.9353 208° Southwest 400 460 21,700 -1,020 Descending New York Center
03:12PM 40.8200 -77.8928 165° South 381 438 20,000 -1,620 Descending New York Center
03:13PM 40.7300 -77.7958 141° Southeast 381 438 18,600 -1,020 Descending New York Center
03:14PM 40.6378 -77.6961 141° Southeast 400 460 18,000 -300 Descending New York Center
03:15PM 40.5511 -77.6108 143° Southeast 433 498 18,000  Level New York Center
03:16PM 40.4706 -77.5236 141° Southeast 433 498 18,000 -660 Level New York Center
03:17PM 40.3747 -77.4136 139° Southeast 427 491 16,800 -1,500 Descending New York Center
03:18PM 40.2975 -77.3028 132° Southeast 391 450 15,100 -1,380 Descending New York Center
03:19PM 40.1833 -77.1333 131° Southeast 359 413 13,100 -780 Descending Potomac TRACON
03:20PM 40.0833 -77.1167 173° South 351 404 13,100 -60 Level Potomac TRACON
03:21PM 40.0000 -77.1500 197° South 341 392 13,000 -60 Descending Potomac TRACON
03:22PM 39.9000 -77.1667 187° South 339 390 13,000 -480 Level Potomac TRACON
03:23PM 39.8167 -77.1833 189° South 303 349 12,100 -1,200 Descending Potomac TRACON
03:24PM 39.7333 -77.2167 197° South 293 337 10,600 -1,380 Descending Potomac TRACON
03:25PM 39.6667 -77.2667 210° Southwest 278 320 9,300 -1,200 Descending Potomac TRACON
03:26PM 39.6167 -77.3333 226° Southwest 257 296 8,300 -1,200 Descending Potomac TRACON
03:27PM 39.5500 -77.3833 210° Southwest 256 295 6,900 -1,140 Descending Potomac TRACON
03:28PM 39.5000 -77.4333 218° Southwest 243 280 6,100 -1,020 Descending Potomac TRACON
03:29PM 39.4500 -77.4833 218° Southwest 248 285 4,900 -1,020 Descending Potomac TRACON
03:30PM 39.3833 -77.4333 150° Southeast 239 275 4,100 -420 Descending Potomac TRACON
03:31PM 39.3500 -77.4500 201° Southwest 185 213 4,100  Level Potomac TRACON
03:32PM 39.3167 -77.4500 180° South 172 198 4,100 -360 Level Potomac TRACON
03:33PM 39.2667 -77.4333 166° South 178 205 3,400 -480 Descending Potomac TRACON
03:35PM 39.2167 -77.4333 180° South 165 190 3,100 -180 Descending Potomac TRACON
03:36PM 39.1667 -77.4333 180° South 160 184 3,100  Level Potomac TRACON
03:37PM 39.1167 -77.4333 180° South 164 189 3,100 -180 Level Potomac TRACON
03:38PM 39.0833 -77.4333 180° South 163 188 2,800 -600 Descending Potomac TRACON
03:39PM 39.0333 -77.4333 180° South 146 168 1,900 -840 Descending Potomac TRACON
03:40PM 39.0000 -77.4333 180° South 133 153 1,200 -720 Descending Potomac TRACON
03:42PM 38.9474 -77.4599 349° North  Level Estimated